Fort Collins, CO (80521)

3:18 PM MDT on September 01, 2015 (GMT -0600)
Taft Hill and Mulberry | | Change Station
CLOSE
Current Station
Personal Weather Station
Location: Fort Collins, CO
Elevation: 5092 ft
Nearby Weather Stations

Elev 5092 ft 40.58 °N, 105.12 °W | Updated 11 seconds ago

Clear
Clear
89.8 °F
Feels Like 86 °F
N
1.6
Wind Variable Wind from SE
Gusts 4.5 mph

Today
High -- | Low -- °F
--% Chance of Precip.
Yesterday
High -- | Low -- °F
Precip. -- in
6:27 AM 7:32 PM
Waning Gibbous, 86% visible
Pressure 30.00 in
Visibility 10.0 miles
Clouds Clear
Heat Index 86 °F
Dew Point 41 °F
Humidity 18%
Rainfall 0.00 in
Snow Depth Not available.
UV 7 out of 12
Pollen 9.80 out of 12
Air Quality Not available.
Flu Activity Not available.
METAR KFNL 012115Z AUTO 09011G15KT 050V110 10SM CLR 33/07 A3000 RMK AO1 LTG DSNT SW
Pressure 30.00 in
Visibility 10.0 miles
Clouds Clear
Heat Index 86 °F
Dew Point 41 °F
Humidity 18%
Rainfall 0.00 in
Snow Depth Not available.
UV 7 out of 12
Pollen 9.80 out of 12
Air Quality Not available.
Flu Activity Not available.
METAR KFNL 012115Z AUTO 09011G15KT 050V110 10SM CLR 33/07 A3000 RMK AO1 LTG DSNT SW

10-Day Weather Forecast

×

Almanac

Astronomy

Sep. 01, 2015 Rise Set
Actual Time
Civil Twilight
Nautical Twilight
Astronomical Twilight
Moon
Length of Visible Light
Length of Day
Tomorrow will be .
, % of the Moon is Illuminated

Today's Extremes

State Highs State Lows

Community

WunderPhotos

Upload Photos

1,851,617 photos uploaded!

WunderBlogs® & News

Nearby

Air Quality

  Air Quality AQ Index Pollutant
Not available.

Snow Depth

Station Depth Elevation

Earthquake Activity

City Distance Mag. Time & Date
Minimum magnitude displayed is 2.5.

Coastal Water Temperatures

Place Temperature

Stations

Nearby Weather Stations

Station Location Temp. Windchill Dew Point Humidity Wind Precip. Elev Updated Type